National Weather Service United States Department of Commerce

Dangerous Heat in the Western U.S.; Flash Flooding Possible Across Portions of the South

High temperatures in the 90s to 100s and warm overnight temperatures will continue across parts of the Interior Northwest, central California, and the Great Basin. Thunderstorms and heavy rain may produce scattered flash flooding across much of the Southern Rockies into the Southwest, particularly over sensitive burn scars in New Mexico, and across the Southeast into the Carolinas. Read More >

  Select Oklahoma Tornado statistics by Year for the period 1950 to the present year from the menus below.
 
Tornadoes by Month
Jan Feb Mar Apr May Jun Jul Aug Sep Oct Nov Dec Total
0 0 2 55 47 0 - - - - - - 104
 
Tornadoes by Intensity
EF? EFU EF0 EF1 EF2 EF3 EF4 EF5 Total
0 11 27 54 6 4 2 0 104
 
Tornado
Number
Date Time
(CST)
Length
of Path
(miles)
Width
of Path
(yards)
F-Scale Killed Injured County Location
1 03/14/2024 1244-1247 2.7 350 EF0 0 0 McIntosh 8.4 WSW - 6.1 W Pierce
2 03/14/2024 2200-2201 0.5 200 EF1 0 0 McCurtain 5 N - 6 N Broken Bow (~3 S Hochatown)
3 04/01/2024 1817-1827 7 600 EF1 0 0 Osage 4 N Hominy - 2 SE Wynona
4 04/01/2024 1828-1836 5.5 1000 EF1 0 0 Osage 2 ESE Wynona - 2 W Barnsdall
5 04/01/2024 1838-1841 2.2 550 EF1 0 0 Osage Barnsdall - 2 ENE Barnsdall
6 04/01/2024 1849-1856 4.9 550 EF1 0 0 Osage/ Washington 3 NW - 4 NE Ochelata
7 04/01/2024 1913-1919 4.2 600 EF1 0 1 Nowata 2 WNW - 3 NE Delaware
8 04/26/2024 0349-0350 0.5 30 EF0 0 0 Cleveland 2 ESE Stella
9 04/26/2024 0352-0355 2.4 40 EF0 0 0 Pottawatomie 4 ENE Stella - 3 SE Newalla
10 04/26/2024 0353-0356 1.9 75 EF1 0 0 Cleveland/ Pottawatomie 4 SSE - 3 SE Newalla
11 04/26/2024 0405-0408 2.4 50 EF0 0 0 Pottawatomie 3 WNW - 3 N Shawnee
12 04/26/2024 0428-0439 10 500 EF1 0 0 Pottawatomie/ Lincoln/ Okfuskee 2.8 SSE Prague - 3.3 N Paden
13 04/26/2024 0518-0525 6.9 650 EF1 0 0 Okmulgee 3.1 NW - 6.5 NE Okmulgee
14 04/26/2024 0622-0624 1.7 250 EF1 0 0 Pittsburg 1 NW - 1.9 NNE McAlester
15 04/27/2024 0911-0912 0.7 50 EF1 0 0 Roger Mills 5 ENE Strong City
16 04/27/2024 0918-0918 0.1 10 EF0 0 0 Roger Mills 6 NW Hammon
17 04/27/2024 1221-1222 0.8 100 EF1 0 0 Garfield Hillsdale - 1 ENE Hillsdale
18 04/27/2024 1339-1344 2.6 30 EF1 0 0 Kay 3 SE Peckham - 3 W Newkirk
19 04/27/2024 1354-1356 1 75 EF1 0 0 Kay 4 NNE Newkirk
20 04/27/2024 1420-1427 5 30 EF0 0 0 Payne 5 NW Stillwater - 5 SW Morrison
21 04/27/2024 1510-1512 0.8 20 EF0 0 0 Caddo 3 SW - 2.5 SW Hinton
22 04/27/2024 1529-1539 7 150 EF1 0 0 Canadian 5 ESE Geary - 5 N Calumet
23 04/27/2024 1743-1756 7 100 EF1 0 0 Wichita TX/ Tillman/ Cotton 5 WNW Burkburnett TX - 1 E Devol
24 04/27/2024 1855-1855 0.3 20 EFU 0 0 Comanche 4 SSE Pumpkin Center
25 04/27/2024 1916-1916 0.1 75 EFU 0 0 Osage 3 NW Grainola
26 04/27/2024 1953-2000 4.4 225 EF1 0 0 McClain/ Grady 3 ENE Bradley - 6 SSW Dibble
27 04/27/2024 2012-2014 0.5 40 EF1 0 0 McClain 3 NNE Dibble
28 04/27/2024 2016-2022 5 150 EF1 0 0 Johnston 3 NNE Ravia - 1 W Reagan
29 04/27/2024 2017-2020 1.7 40 EF0 0 0 McClain 1 WNW - 1.5 NNE Cole
30 04/27/2024 2020-2027 5 125 EF2 0 0 McClain 3 N Cole - 2 NNW Goldsby
31 04/27/2024 2029-2036 3.5 200 EF1 0 0 Cleveland Norman (near NW 24th/Robinson - SW of NE 12th/Tecumseh
32 04/27/2024 2042-2056 11 400 EF2 0 19 Carter 5 SW Ardmore - Ardmore (west side) - 3 S Springer
33 04/27/2024 2045-2056 9 150 EF1 0 0 Oklahoma Oklahoma City (2 E Tinker AFB; south of SE 44th/Post) - 1 E Choctaw
34 04/27/2024 2115-2117 1.5 30 EF1 0 0 Pontotoc 2 ENE - 3 NE Happyland
35 04/27/2024 2116-2129 10 250 EF1 0 0 Lincoln 4 SSE Chandler - 1 E Kendrick
36 04/27/2024 2123-2137 10 440 EF3 1 30 Murray/ Pontotoc 3 SSW Sulphur - Sulphur - 3 NW Hickory
37 04/27/2024 2136-2215 28 1760 EF3 2 4 Hughes/ Okfuskee 1 SSW Spaulding - just W of Holdenville - 3 S Okemah
38 04/27/2024 2137-2154 8 500 EF1 0 0 Pontotoc 4 W Roff - 4 SSE Vanoss
39 04/27/2024 2145-2146 0.5 30 EF0 0 0 Carter 4 NNE Ardmore
40 04/27/2024 2207-2218 6 250 EF1 0 0 Murray 4.5 E Dougherty - 6 SE Sulphur
41 04/27/2024 2208-2243 27 900 EF4 1 6 Love/ Carter 2 WSW Marietta - Marietta (west side) - Lake Murray - Dickson - 4 ESE Gene Autry
42 04/27/2024 2221-2227 3.5 100 EF1 0 0 Murray 2 SE Dougherty - Lake of the Arbuckles (3 NE Dougherty)
43 04/27/2024 2301-2314 11.3 1400 EF1 0 0 Okmulgee 2 W Schulter - 1 N Morris
44 04/27/2024 2314-2323 8.9 1100 EF1 0 0 Okmulgee 1 E Morris - 5 ESE Bald Hill
45 04/27/2024 2322-2325 1 200 EFU 0 0 Johnston 6 W Troy
46 04/27/2024 2328-2335 6.2 800 EF1 0 0 Muskogee 4.2 NW Boynton - 3.1 WNW Taft
47 04/27/2024 2340-2352 9.8 750 EF1 0 0 Wagoner 2 ESE Choska - 4 ENE Porter
48 04/27/2024 2355-2358 1.6 400 EF1 0 0 Wagoner 3 SW - 2 WSW Wagoner
49 04/28/2024 0023-0030 4.3 350 EF1 0 0 Cherokee 1.5 NNE - 5.4 NE Peggs
50 04/28/2024 1623-1626 2 100 EFU 0 0 Pittsburg 3.3 SSW - 1.9 SE Crowder
51 04/28/2024 1750-1751 1.3 75 EFU 0 0 McIntosh 3.4 NNW - 3.9 N Eufaula
52 04/28/2024 1901-1910 4.3 200 EF0 0 0 LeFlore 3.3 S - 3.8 SE Heavener
53 04/30/2024 1632-1639 2.5 200 EF1 0 0 Washita 1 S Cordell - Cordell - 1 NNE Cordell
54 04/30/2024 1825-1839 2.5 50 EFU 0 0 Tillman 4 ESE - 2 E Tipton
55 04/30/2024 1835-1835 0.5 100 EF0 0 0 Kiowa 3 SSE Cooperton
56 04/30/2024 2032-2112 6 1200 EF1 0 0 Tillman 3 NE - 5 NE Hollister
57 04/30/2024 2118-2132 2 200 EF1 0 0 Tillman 2 SSE Loveland - 3 WNW Grandfield
58 05/06/2024 1704-1711 4   EFU 0 0 Major/ Alfalfa 6.5 SSW - 5.5 S Helena
59 05/06/2024 1741-1802 11 300 EF1 0 0 Blaine/ Kingfisher 4 SSE Okeene - 1 WNW Lacey
60 05/06/2024 1827-1827 0.2 50 EF0 0 0 Garfield 1 S Bison
61 05/06/2024 1834-1834 0.2   EF0 0 0 Garfield 5 ESE Bison
62 05/06/2024 1844-1854 6 300 EF1 0 0 Garfield near Douglas - 3 S Covington
63 05/06/2024 1944-1945 0.6 30 EF0 0 0 Kay just SW of Lake Ponca (3 ENE - 3 E Ponca City)
64 05/06/2024 1954-2003 8 75 EF1 0 0 Kay 4 WNW Kaw City - Kaw Lake (Coon Creek Cove area) - 6 NNE Kaw Lake Dam
65 05/06/2024 2012-2107 40.8 1700 EF4 2 33 Osage/ Washington 4 NE Osage - 2 ESE Dewey
66 05/06/2024 2156-2201 2.2 50 EF0 0 0 Lincoln 3 S Carney - 4 NNE Warwick
67 05/06/2024 2200-2204 3.2 1100 EF0 0 0 Ottawa/ Cherokee KS 5 SSW Melrose - into KS
68 05/06/2024 2237-2243 5 75 EF1 0 0 Cleveland/ Oklahoma 4 WNW Moore - 1 NW Valley Brook (near SW 104th/May - near I-35/SE 59th)
69 05/06/2024 2244-2247 3 40 EF1 0 0 Oklahoma 1 NNE Valley Brook - Del City (near SE 44th St and Eastern - SE 15th Street/Tinker Diagonal)
70 05/06/2024 2306-2313 4 350 EF1 0 0 Creek/ Okmulgee 6.2 SE Slick - 4.6 WSW Beggs
71 05/07/2024 0005-0011 2.8 200 EF1 0 0 Okfuskee 2.5 N - 3.6 NE Weleetka
72 05/07/2024 0123-0139 11.7 800 EF2 0 0 Adair/ Washington AR 5 SSE Stilwell - 1 E Odell AR
73 05/08/2024 1310 0.1 75 EFU 0 0 Ottawa 4 NW Narcissa
74 05/08/2024 1312 0.1 75 EFU 0 0 Ottawa 3 NW Narcissa
75 05/08/2024 1315-1323 4 450 EF1 0 0 Ottawa 2 NW Narcissa - 3 S Miami
76 05/08/2024 1351-1352 0.3 60 EF1 0 0 Ottawa 2 NW Seneca
77 05/13/2024 0334-0334     EF0 0 0 Lincoln 5 SE Luther
78 05/19/2024 1719-1719 0.2 30 EF0 0 0 Roger Mills 5 ESE Roll
79 05/19/2024 1743-1745 1.9 30 EF0 0 0 Roger Mills 7 NW - 5.5 NW Hammon
80 05/19/2024 1824-1902 15 1500 EF2 0   Custer 4 E Butler - 5 N Custer City
81 05/19/2024 1905-1914 5 440 EF1 0 0 Custer 6 ESE Custer City - 6 N Weatherford
82 05/19/2024 1924-1924 0.8 40 EF0 0 0 Caddo near - 1 SSE Hydro
83 05/19/2024 2032-2048 3.5 300 EF2 0 0 Canadian SW OKC (near SW15th/Banner Road to NE of NW10th/Cimarron Road)
84 05/19/2024 2041-2044 1.2 300 EF0 0 0 Canadian SW OKC (NW of SE 15th/Manning - NW of Reno/Manning)
85 05/19/2024 2041-2053 3 30 EF0 0 0 Canadian 4 NNE Union City - 4 S El Reno
86 05/19/2024 2110-2110 0.1 10 EF0 0 0 Oklahoma SW OKC (near SW 59th and I-44)
87 05/19/2024 2153-2157 2.5 300 EF1 0 0 Woods 6 NW Waynoka
88 05/19/2024 2201-2207 1.5 40 EF0 0 0 Woods 5 NNW Waynoka
89 05/21/2024 1627-1636 5.3 500 EF1 0 0 Rogers 2 NNW Verdigris - 3 WSW Tiawah
90 05/21/2024 1639-1641 1 100 EF1 0 0 Rogers 2 WSW - 1 WSW Tiawah
91 05/21/2024 1937-1939 0.6 50 EF1 0 0 Blaine/ Caddo 3 W Bridgeport
92 05/22/2024 0837-0844 2.9 300 EF1 0 0 Pittsburg/ Haskell .9 W Quinton - 5.4 WNW Kinta
93 05/23/2024 1717-1720   20 EF0 0 0 Harmon 5 SSW Gould
94 05/23/2024 1804-1857 15 1960 EF2 0   Jackson 7 N Eldorado - 5 ESE Duke
95 05/23/2024 1825-1827 1 40 EF0 0 0 Jackson 6 SSE Duke
96 05/25/2024 1505-1508     EF0 0 0 Tillman 9 NNW Davidson
97 05/25/2024 1714-1720     EF1 0 0 Woodward 1 SW - 1 E Mutual
98 05/25/2024 1729-1729     EFU 0 0 Major 3 N Chester
99 05/25/2024 2219-2259 23.9 2000 EF3 2 23 Rogers/ Mayes 5 ENE Owasso - 2 WNW Pryor
100 05/25/2024 2307-2319 6.1 2000 EF1 0 0 Mayes 2 NNW - 5 E Salina
101 05/25/2024 2325-2330 2.4 300 EF1 0 0 Mayes 1 NW - 2 SE Salina
102 05/25/2024 2336-2339 1.8 650 EF1 0 0 Delaware 6 N - 8 NNE Leach
103 05/25/2024 2359-0021 7.9 3200 EF3 0 2 Delaware/ Benton AR 2 W Cherokee City - 3 NW Decatur
104 05/29/2024 2334-2336 0.7 50 EFU 0 0 Cimarron 9 NW Boise City